Time;durP1;ratioP1;P1;durP2;ratioP2;P2;SDS_P1;SDS_P2;PMS_P1;PMS_P2;Temp;Humidity;BMP_temperature;BMP_pressure;BME280_temperature;BME280_humidity;BME280_pressure;Samples;Min_cycle;Max_cycle;Signal;HPM_P1;HPM_P2
2019/09/21 00:00:08;;;;;;;7.6;2.6;;;;;;;9.53;67.35059;1009.099;;;;
2019/09/21 00:02:33;;;;;;;6.7;2.5;;;;;;;9.58;67.07324;1009.121;;;;
2019/09/21 00:04:59;;;;;;;7.2;2.4;;;;;;;9.66;66.92578;1009.105;;;;
2019/09/21 00:07:24;;;;;;;6.3;2.5;;;;;;;9.71;66.72754;1009.16;;;;
2019/09/21 00:09:49;;;;;;;7.3;2.6;;;;;;;9.72;67.05957;1009.062;;;;
2019/09/21 00:12:19;;;;;;;6.1;2.6;;;;;;;9.76;66.97559;1009.003;;;;
2019/09/21 00:14:47;;;;;;;4.8;2.7;;;;;;;9.66;67.25684;1009.07;;;;
2019/09/21 00:21:55;;;;;;;6.7;2.2;;;;;;;9.57;67.18457;1008.992;;;;
2019/09/21 00:24:20;;;;;;;5.3;2.3;;;;;;;9.58;67.2793;1008.988;;;;
2019/09/21 00:26:45;;;;;;;7.7;2.4;;;;;;;9.63;67.24121;1009.01;;;;
2019/09/21 00:29:11;;;;;;;6.4;2.6;;;;;;;9.72;67.0957;1008.94;;;;
2019/09/21 00:32:41;;;;;;;6.8;2.6;;;;;;;9.83;66.67773;1008.951;;;;
2019/09/21 00:35:06;;;;;;;5.9;2.4;;;;;;;9.79;66.86523;1008.911;;;;
2019/09/21 00:37:31;;;;;;;6;2.6;;;;;;;9.77;66.9082;1008.916;;;;
2019/09/21 00:39:56;;;;;;;5.6;2.7;;;;;;;9.79;66.79688;1008.928;;;;
2019/09/21 00:42:21;;;;;;;4.5;2.4;;;;;;;9.9;66.44922;1008.947;;;;
2019/09/21 00:44:47;;;;;;;5.5;2.7;;;;;;;9.89;66.49219;1008.852;;;;
2019/09/21 00:47:12;;;;;;;5.5;2.4;;;;;;;9.75;67.39648;1008.831;;;;
2019/09/21 00:49:37;;;;;;;5.7;2.5;;;;;;;9.68;67.33984;1008.799;;;;
2019/09/21 00:52:02;;;;;;;7.3;2.5;;;;;;;9.66;67.41699;1008.782;;;;
2019/09/21 00:54:27;;;;;;;4.7;2.5;;;;;;;9.58;67.6543;1008.86;;;;
2019/09/21 00:56:52;;;;;;;7.2;2.6;;;;;;;9.46;68.04883;1008.87;;;;
2019/09/21 00:59:17;;;;;;;6.5;2.8;;;;;;;9.4;68.29004;1008.794;;;;
2019/09/21 01:01:42;;;;;;;6.7;3.1;;;;;;;9.25;68.84766;1008.766;;;;
2019/09/21 01:04:07;;;;;;;5.2;2.6;;;;;;;9.12;69.39844;1008.729;;;;
2019/09/21 01:06:32;;;;;;;5.8;2.7;;;;;;;9.08;69.54102;1008.716;;;;
2019/09/21 01:08:57;;;;;;;5.6;2.6;;;;;;;9.25;69.08887;1008.708;;;;
2019/09/21 01:11:22;;;;;;;6.7;2.6;;;;;;;9.43;68.24805;1008.681;;;;
2019/09/21 01:13:48;;;;;;;7.2;2.8;;;;;;;9.49;67.96094;1008.551;;;;
2019/09/21 01:16:13;;;;;;;7.4;2.7;;;;;;;9.56;67.5498;1008.572;;;;
2019/09/21 01:18:38;;;;;;;7;2.6;;;;;;;9.46;67.69434;1008.521;;;;
2019/09/21 01:21:03;;;;;;;6.4;2.7;;;;;;;9.47;67.60449;1008.504;;;;
2019/09/21 01:23:28;;;;;;;8.9;3.1;;;;;;;9.41;67.79004;1008.497;;;;
2019/09/21 01:25:54;;;;;;;8.6;3.1;;;;;;;9.42;67.83594;1008.469;;;;
2019/09/21 01:28:19;;;;;;;7.1;3.2;;;;;;;9.4;67.93555;1008.421;;;;
2019/09/21 01:30:44;;;;;;;6.7;2.6;;;;;;;9.38;68.03418;1008.413;;;;
2019/09/21 01:33:09;;;;;;;6.7;2.6;;;;;;;9.35;68.15723;1008.398;;;;
2019/09/21 01:35:34;;;;;;;5.9;2.8;;;;;;;9.33;68.37012;1008.506;;;;
2019/09/21 01:37:59;;;;;;;8;2.7;;;;;;;9.38;68.44531;1008.413;;;;
2019/09/21 01:40:24;;;;;;;8.7;2.9;;;;;;;9.43;68.41992;1008.411;;;;
2019/09/21 01:42:49;;;;;;;8.2;2.9;;;;;;;9.5;68.2373;1008.331;;;;
2019/09/21 01:45:15;;;;;;;8.1;3.1;;;;;;;9.49;68.30371;1008.311;;;;
2019/09/21 01:47:42;;;;;;;7.8;2.8;;;;;;;9.41;68.40527;1008.308;;;;
2019/09/21 01:50:05;;;;;;;5.4;2.6;;;;;;;9.26;68.75879;1008.29;;;;
2019/09/21 01:52:30;;;;;;;4.4;2.6;;;;;;;9.12;69.18164;1008.38;;;;
2019/09/21 01:54:55;;;;;;;6.9;2.8;;;;;;;9.04;69.46289;1008.342;;;;
2019/09/21 01:57:20;;;;;;;7.6;2.8;;;;;;;8.94;69.89258;1008.335;;;;
2019/09/21 01:59:45;;;;;;;7.2;2.8;;;;;;;8.86;70.25684;1008.369;;;;
2019/09/21 02:02:10;;;;;;;6.6;2.8;;;;;;;8.83;70.45801;1008.383;;;;
2019/09/21 02:04:36;;;;;;;4.7;2.6;;;;;;;8.86;70.46191;1008.39;;;;
2019/09/21 02:07:01;;;;;;;7.3;3;;;;;;;8.88;70.56738;1008.464;;;;
2019/09/21 02:09:26;;;;;;;6.4;2.7;;;;;;;8.87;70.66895;1008.441;;;;
2019/09/21 02:11:51;;;;;;;5.1;2.7;;;;;;;8.78;70.80273;1008.452;;;;
2019/09/21 02:14:16;;;;;;;7.8;2.6;;;;;;;8.73;70.96484;1008.461;;;;
2019/09/21 02:16:41;;;;;;;6.8;2.7;;;;;;;8.63;71.27832;1008.437;;;;
2019/09/21 02:19:06;;;;;;;6.9;2.7;;;;;;;8.68;71.07129;1008.44;;;;
2019/09/21 02:21:31;;;;;;;5.9;2.6;;;;;;;8.69;70.91309;1008.393;;;;
2019/09/21 02:23:56;;;;;;;5.7;2.6;;;;;;;8.68;70.90039;1008.316;;;;
2019/09/21 02:26:21;;;;;;;6.8;2.5;;;;;;;8.67;70.95508;1008.301;;;;
2019/09/21 02:28:47;;;;;;;5.2;2.6;;;;;;;8.62;71.16309;1008.28;;;;
2019/09/21 02:31:12;;;;;;;6.4;2.7;;;;;;;8.63;71.13086;1008.22;;;;
2019/09/21 02:33:37;;;;;;;8.1;3;;;;;;;8.64;71.08789;1008.194;;;;
2019/09/21 02:36:02;;;;;;;6.3;2.7;;;;;;;8.64;71.14355;1008.167;;;;
2019/09/21 02:38:27;;;;;;;6.3;2.6;;;;;;;8.66;71.14648;1008.208;;;;
2019/09/21 02:40:52;;;;;;;7;3;;;;;;;8.73;70.95313;1008.155;;;;
2019/09/21 02:43:17;;;;;;;6.4;2.8;;;;;;;8.85;70.3125;1008.194;;;;
2019/09/21 02:45:43;;;;;;;5.7;2.8;;;;;;;8.87;70.21289;1008.177;;;;
2019/09/21 02:48:08;;;;;;;7.3;2.9;;;;;;;8.93;69.92676;1008.234;;;;
2019/09/21 02:50:33;;;;;;;5.1;3;;;;;;;8.96;69.7373;1008.218;;;;
2019/09/21 02:52:58;;;;;;;6.7;2.8;;;;;;;9.02;69.55273;1008.183;;;;
2019/09/21 02:55:23;;;;;;;5.6;2.7;;;;;;;9.04;69.31543;1008.073;;;;
2019/09/21 02:57:48;;;;;;;5.6;2.7;;;;;;;8.94;69.67676;1008.068;;;;
2019/09/21 03:00:13;;;;;;;6;3.1;;;;;;;8.93;69.69824;1008.049;;;;
2019/09/21 03:02:38;;;;;;;6.7;2.8;;;;;;;8.91;69.78516;1008.062;;;;
2019/09/21 03:05:03;;;;;;;5.3;2.9;;;;;;;8.96;69.54297;1008.063;;;;
2019/09/21 03:07:28;;;;;;;7.6;3;;;;;;;9.02;69.25684;1008.029;;;;
2019/09/21 03:09:53;;;;;;;6;2.7;;;;;;;9.03;69.09863;1007.909;;;;
2019/09/21 03:12:18;;;;;;;7.6;2.9;;;;;;;9.08;68.93457;1007.89;;;;
2019/09/21 03:14:44;;;;;;;6.1;2.8;;;;;;;9.03;68.96094;1007.883;;;;
2019/09/21 03:17:09;;;;;;;7.7;2.9;;;;;;;9.08;68.78613;1007.858;;;;
2019/09/21 03:19:34;;;;;;;6.7;2.9;;;;;;;9.22;68.33984;1007.819;;;;
2019/09/21 03:21:59;;;;;;;6.5;3;;;;;;;9.21;68.09961;1007.829;;;;
2019/09/21 03:24:24;;;;;;;5.8;2.8;;;;;;;9.27;67.8916;1007.807;;;;
2019/09/21 03:26:49;;;;;;;8.5;3.1;;;;;;;9.32;67.61523;1007.79;;;;
2019/09/21 03:29:14;;;;;;;7.4;2.7;;;;;;;9.22;67.86133;1007.818;;;;
2019/09/21 03:31:40;;;;;;;6.3;3;;;;;;;9.3;67.50879;1007.78;;;;
2019/09/21 03:34:05;;;;;;;7;3.2;;;;;;;9.35;67.36816;1007.777;;;;
2019/09/21 03:36:30;;;;;;;4.7;2.8;;;;;;;9.48;66.88477;1007.818;;;;
2019/09/21 03:38:55;;;;;;;5.2;2.9;;;;;;;9.37;67.09766;1007.774;;;;
2019/09/21 03:41:20;;;;;;;6.4;2.8;;;;;;;9.29;67.37109;1007.786;;;;
2019/09/21 03:43:45;;;;;;;5.2;2.8;;;;;;;9.25;67.54688;1007.702;;;;
2019/09/21 03:46:11;;;;;;;7.1;3;;;;;;;9.26;67.46973;1007.743;;;;
2019/09/21 03:48:35;;;;;;;6.8;3.2;;;;;;;9.2;67.52832;1007.71;;;;
2019/09/21 03:51:01;;;;;;;6.1;2.8;;;;;;;9.22;67.45117;1007.676;;;;
2019/09/21 03:53:26;;;;;;;5.6;2.8;;;;;;;9.22;67.41699;1007.658;;;;
2019/09/21 03:55:51;;;;;;;9;3.1;;;;;;;9.17;67.59082;1007.617;;;;
2019/09/21 03:58:16;;;;;;;6.2;2.8;;;;;;;9.11;67.70801;1007.588;;;;
2019/09/21 04:02:28;;;;;;;6.1;2.9;;;;;;;8.94;68.43262;1007.605;;;;
2019/09/21 04:04:53;;;;;;;5.9;2.8;;;;;;;8.95;68.63867;1007.621;;;;
2019/09/21 04:07:18;;;;;;;7.7;2.9;;;;;;;8.98;68.58887;1007.647;;;;
2019/09/21 04:09:43;;;;;;;8.9;2.9;;;;;;;8.96;68.93848;1007.68;;;;
2019/09/21 04:12:08;;;;;;;6.9;2.7;;;;;;;8.93;69.05859;1007.674;;;;
2019/09/21 04:14:33;;;;;;;7.4;2.9;;;;;;;8.92;69.06836;1007.66;;;;
2019/09/21 04:16:58;;;;;;;6.9;2.9;;;;;;;8.83;69.5459;1007.693;;;;
2019/09/21 04:19:23;;;;;;;5;2.5;;;;;;;8.76;69.68066;1007.661;;;;
2019/09/21 04:21:48;;;;;;;6;2.8;;;;;;;8.51;70.73535;1007.612;;;;
2019/09/21 04:24:13;;;;;;;5.7;2.8;;;;;;;8.48;70.77441;1007.594;;;;
2019/09/21 04:26:39;;;;;;;7;2.7;;;;;;;8.39;71.24023;1007.525;;;;
2019/09/21 04:29:04;;;;;;;6.2;2.8;;;;;;;8.45;70.89551;1007.528;;;;
2019/09/21 04:31:29;;;;;;;6.8;3.1;;;;;;;8.5;70.7334;1007.565;;;;
2019/09/21 04:33:54;;;;;;;5.2;2.9;;;;;;;8.62;70.08203;1007.562;;;;
2019/09/21 04:36:19;;;;;;;6.6;3.1;;;;;;;8.57;70.29004;1007.549;;;;
2019/09/21 04:38:44;;;;;;;7.6;2.8;;;;;;;8.45;70.84961;1007.55;;;;
2019/09/21 04:41:09;;;;;;;6.2;3.1;;;;;;;8.52;70.62305;1007.516;;;;
2019/09/21 04:43:34;;;;;;;5.9;2.8;;;;;;;8.53;70.11133;1007.526;;;;
2019/09/21 04:45:59;;;;;;;7.1;3.2;;;;;;;8.55;69.86328;1007.594;;;;
2019/09/21 04:48:25;;;;;;;7.3;3;;;;;;;8.57;69.91309;1007.584;;;;
2019/09/21 04:50:50;;;;;;;6;3.1;;;;;;;8.53;69.79199;1007.568;;;;
2019/09/21 04:53:15;;;;;;;6.6;3;;;;;;;8.5;69.87891;1007.548;;;;
2019/09/21 04:55:40;;;;;;;5;2.9;;;;;;;8.5;69.90137;1007.585;;;;
2019/09/21 04:58:05;;;;;;;8.4;3.3;;;;;;;8.55;69.76074;1007.689;;;;
2019/09/21 05:00:30;;;;;;;7.4;3;;;;;;;8.53;69.72363;1007.666;;;;
2019/09/21 05:02:55;;;;;;;8.1;3;;;;;;;8.52;69.80176;1007.623;;;;
2019/09/21 05:05:21;;;;;;;6.5;3.1;;;;;;;8.48;69.91016;1007.599;;;;
2019/09/21 05:07:46;;;;;;;8;3.2;;;;;;;8.43;70.04785;1007.629;;;;
2019/09/21 05:10:11;;;;;;;9.3;3.2;;;;;;;8.45;70.08691;1007.552;;;;
2019/09/21 05:12:36;;;;;;;8.2;3.1;;;;;;;8.43;70.10645;1007.552;;;;
2019/09/21 05:15:01;;;;;;;6.8;2.8;;;;;;;8.46;70.06543;1007.46;;;;
2019/09/21 05:17:26;;;;;;;7.9;2.9;;;;;;;8.49;70.03711;1007.436;;;;
2019/09/21 05:19:51;;;;;;;5;2.8;;;;;;;8.57;69.78809;1007.465;;;;
2019/09/21 05:22:16;;;;;;;7.8;2.8;;;;;;;8.74;69.0293;1007.406;;;;
2019/09/21 05:24:42;;;;;;;7.4;2.9;;;;;;;8.73;69.01465;1007.402;;;;
2019/09/21 05:27:07;;;;;;;7.7;2.7;;;;;;;8.71;69.0459;1007.518;;;;
2019/09/21 05:29:32;;;;;;;7.9;2.9;;;;;;;8.71;68.95508;1007.495;;;;
2019/09/21 05:31:57;;;;;;;9.8;3.2;;;;;;;8.76;68.65625;1007.462;;;;
2019/09/21 05:34:22;;;;;;;7;3.1;;;;;;;8.8;68.51367;1007.422;;;;
2019/09/21 05:36:47;;;;;;;6;2.7;;;;;;;8.83;68.41504;1007.458;;;;
2019/09/21 05:39:12;;;;;;;4.4;2.5;;;;;;;8.96;67.67285;1007.524;;;;
2019/09/21 05:41:37;;;;;;;5.6;2.8;;;;;;;8.97;67.67383;1007.511;;;;
2019/09/21 05:44:02;;;;;;;7.4;2.5;;;;;;;9.04;67.37598;1007.498;;;;
2019/09/21 05:46:28;;;;;;;7.4;2.6;;;;;;;9.08;67.21289;1007.517;;;;
2019/09/21 05:48:53;;;;;;;7.2;2.9;;;;;;;9.14;66.82227;1007.547;;;;
2019/09/21 05:51:18;;;;;;;5.5;2.9;;;;;;;9.25;66.38184;1007.501;;;;
2019/09/21 05:53:43;;;;;;;4.6;2.6;;;;;;;9.27;66.30469;1007.489;;;;
2019/09/21 05:56:08;;;;;;;4;2.6;;;;;;;9.43;65.73633;1007.48;;;;
2019/09/21 05:58:33;;;;;;;6.5;2.5;;;;;;;9.55;65.03418;1007.451;;;;
2019/09/21 06:00:58;;;;;;;10;3.1;;;;;;;9.66;64.89258;1007.444;;;;
2019/09/21 06:03:24;;;;;;;5.6;2.5;;;;;;;9.79;64.31738;1007.446;;;;
2019/09/21 06:05:49;;;;;;;5.8;2.6;;;;;;;9.98;63.52344;1007.446;;;;
2019/09/21 06:08:14;;;;;;;5.6;2.6;;;;;;;10.1;62.88867;1007.439;;;;
2019/09/21 06:10:39;;;;;;;4.6;2.7;;;;;;;10.23;62.60938;1007.404;;;;
2019/09/21 06:13:04;;;;;;;8.2;2.9;;;;;;;10.38;62.03711;1007.427;;;;
2019/09/21 06:15:29;;;;;;;5;2.6;;;;;;;10.62;61.0752;1007.434;;;;
2019/09/21 06:17:54;;;;;;;6.8;3;;;;;;;10.67;60.80859;1007.435;;;;
2019/09/21 06:20:19;;;;;;;6.3;2.7;;;;;;;10.84;60.17676;1007.411;;;;
2019/09/21 06:22:45;;;;;;;4.8;2.2;;;;;;;10.92;60.40527;1007.404;;;;
2019/09/21 06:25:16;;;;;;;3.3;2.3;;;;;;;10.96;60.14844;1007.346;;;;
2019/09/21 06:27:43;;;;;;;6.2;2.2;;;;;;;11.06;59.81836;1007.33;;;;
2019/09/21 06:30:06;;;;;;;7;2.5;;;;;;;11.41;58.59375;1007.336;;;;
2019/09/21 06:32:31;;;;;;;4.1;2.5;;;;;;;11.64;57.67285;1007.369;;;;
2019/09/21 06:34:56;;;;;;;7.1;2.5;;;;;;;11.9;56.84473;1007.419;;;;
2019/09/21 06:37:21;;;;;;;7.6;3;;;;;;;12.19;56.09082;1007.362;;;;
2019/09/21 06:39:46;;;;;;;7.7;2.7;;;;;;;12.39;55.13965;1007.38;;;;
2019/09/21 06:42:11;;;;;;;7.8;2.8;;;;;;;12.62;54.33984;1007.413;;;;
2019/09/21 06:44:37;;;;;;;5.9;2.5;;;;;;;12.96;53.87598;1007.402;;;;
2019/09/21 06:47:02;;;;;;;5.1;2.6;;;;;;;13.44;51.86133;1007.35;;;;
2019/09/21 06:49:27;;;;;;;5;2.6;;;;;;;14.23;49.44922;1007.406;;;;
2019/09/21 06:51:52;;;;;;;5.3;2.3;;;;;;;15.7;46.34961;1007.448;;;;
2019/09/21 06:54:17;;;;;;;6.7;2.3;;;;;;;16.28;44.06836;1007.48;;;;
2019/09/21 06:56:42;;;;;;;6;2.3;;;;;;;16.34;43.45898;1007.497;;;;
2019/09/21 06:59:08;;;;;;;4.1;2.3;;;;;;;17.21;41.62598;1007.491;;;;
2019/09/21 07:01:32;;;;;;;5;2.6;;;;;;;17.38;41.1084;1007.426;;;;
2019/09/21 07:03:57;;;;;;;5.1;2.4;;;;;;;18.06;40.01855;1007.43;;;;
2019/09/21 07:06:22;;;;;;;6;2.3;;;;;;;19.5;36.95996;1007.386;;;;
2019/09/21 07:08:47;;;;;;;3.7;2;;;;;;;19.47;36.72363;1007.353;;;;
2019/09/21 07:11:13;;;;;;;6.7;2.5;;;;;;;19.07;37.11035;1007.342;;;;
2019/09/21 07:13:38;;;;;;;5;2.4;;;;;;;20.18;35.49512;1007.317;;;;
2019/09/21 07:16:03;;;;;;;5.8;2.3;;;;;;;19.82;35.16211;1007.351;;;;
2019/09/21 07:18:28;;;;;;;6.7;2.3;;;;;;;20.47;34.3584;1007.456;;;;
2019/09/21 07:20:53;;;;;;;4.8;2.1;;;;;;;20.36;33.99902;1007.446;;;;
2019/09/21 07:23:18;;;;;;;5.1;2.3;;;;;;;19.7;35.00098;1007.37;;;;
2019/09/21 07:25:43;;;;;;;5.3;2.6;;;;;;;19.16;36.18359;1007.415;;;;
2019/09/21 07:28:09;;;;;;;5.8;2.2;;;;;;;20.1;34.69336;1007.38;;;;
2019/09/21 07:30:34;;;;;;;5.7;2.1;;;;;;;20.35;34.44336;1007.39;;;;
2019/09/21 07:32:59;;;;;;;4.4;2.1;;;;;;;19.63;35.28711;1007.354;;;;
2019/09/21 07:35:24;;;;;;;5.2;2.1;;;;;;;19.15;36.2998;1007.399;;;;
2019/09/21 07:37:49;;;;;;;3.7;2;;;;;;;19.67;35.54785;1007.336;;;;
2019/09/21 07:40:14;;;;;;;4.9;2;;;;;;;20.11;34.08594;1007.311;;;;
2019/09/21 07:42:39;;;;;;;4.4;2.1;;;;;;;20.44;33.8418;1007.315;;;;
2019/09/21 07:45:04;;;;;;;4.3;1.9;;;;;;;20.31;34.19434;1007.318;;;;
2019/09/21 07:47:29;;;;;;;5;2.2;;;;;;;18.9;36.72266;1007.275;;;;
2019/09/21 07:49:54;;;;;;;8;2.2;;;;;;;19.63;35.5332;1007.25;;;;
2019/09/21 07:52:20;;;;;;;4.3;2.5;;;;;;;19.88;35.28418;1007.257;;;;
2019/09/21 07:54:45;;;;;;;5.5;2.1;;;;;;;20.86;33.31152;1007.323;;;;
2019/09/21 07:57:10;;;;;;;6.5;2.2;;;;;;;21.38;32.41113;1007.222;;;;
2019/09/21 07:59:35;;;;;;;6.6;2.2;;;;;;;22.17;30.94141;1007.14;;;;
2019/09/21 08:02:00;;;;;;;4.9;2.3;;;;;;;21.35;31.88184;1007.154;;;;
2019/09/21 08:04:25;;;;;;;5.2;2.5;;;;;;;23.15;29.6543;1007.078;;;;
2019/09/21 08:06:50;;;;;;;3.8;1.9;;;;;;;22.86;29.96484;1007.092;;;;
2019/09/21 08:09:15;;;;;;;5.1;2;;;;;;;22.59;30.12305;1007.082;;;;
2019/09/21 08:11:40;;;;;;;4;2;;;;;;;22.38;30.74414;1007.052;;;;
2019/09/21 08:14:05;;;;;;;5.1;2.1;;;;;;;23.77;28.53906;1007.031;;;;
2019/09/21 08:16:30;;;;;;;4.6;2;;;;;;;23.44;29.21387;1007.005;;;;
2019/09/21 08:18:56;;;;;;;4.3;2;;;;;;;22.25;30.40625;1007.009;;;;
2019/09/21 08:21:21;;;;;;;4.5;1.9;;;;;;;21.57;32.15527;1007.094;;;;
2019/09/21 08:23:46;;;;;;;6.9;2.2;;;;;;;23.79;28.85938;1007.078;;;;
2019/09/21 08:26:11;;;;;;;7.2;2.2;;;;;;;24.9;27.14551;1007.163;;;;
2019/09/21 08:28:36;;;;;;;6.1;1.9;;;;;;;24.93;26.65039;1007.186;;;;
2019/09/21 08:31:01;;;;;;;4.2;1.9;;;;;;;25.75;25.43066;1007.184;;;;
2019/09/21 08:33:26;;;;;;;4.4;1.8;;;;;;;24.22;27.63477;1007.118;;;;
2019/09/21 08:35:51;;;;;;;5.4;2.3;;;;;;;23.78;28.57617;1007.108;;;;
2019/09/21 08:38:17;;;;;;;4;1.8;;;;;;;25.86;25.68652;1007.128;;;;
2019/09/21 08:40:42;;;;;;;4.2;1.7;;;;;;;25.8;26.02637;1007.115;;;;
2019/09/21 08:43:07;;;;;;;3.1;1.8;;;;;;;24.68;26.94336;1007.167;;;;
2019/09/21 08:45:32;;;;;;;5.6;2.1;;;;;;;25.43;26.28906;1007.115;;;;
2019/09/21 08:47:57;;;;;;;3.4;1.6;;;;;;;26.77;24.8125;1007.058;;;;
2019/09/21 08:50:22;;;;;;;6.1;1.8;;;;;;;26.96;23.94336;1007.051;;;;
2019/09/21 08:52:47;;;;;;;5.9;1.9;;;;;;;26.7;24.44043;1006.998;;;;
2019/09/21 08:55:13;;;;;;;4.6;1.7;;;;;;;26.89;24.36621;1006.996;;;;
2019/09/21 08:57:38;;;;;;;4.3;1.8;;;;;;;24.57;27.06543;1007.068;;;;
2019/09/21 09:00:04;;;;;;;5.1;1.8;;;;;;;24.44;27.68359;1007.005;;;;
2019/09/21 09:02:29;;;;;;;4.1;1.8;;;;;;;26.75;24.83398;1006.964;;;;
2019/09/21 09:04:54;;;;;;;5.2;1.8;;;;;;;26.28;24.76074;1006.966;;;;
2019/09/21 09:07:19;;;;;;;4.5;2;;;;;;;26.64;24.25879;1006.94;;;;
2019/09/21 09:09:44;;;;;;;4;1.9;;;;;;;26.3;24.85742;1006.974;;;;
2019/09/21 09:12:10;;;;;;;7.3;1.9;;;;;;;26.85;24.10352;1006.962;;;;
2019/09/21 09:14:35;;;;;;;5.4;2;;;;;;;26.01;25.44629;1006.921;;;;
2019/09/21 09:17:00;;;;;;;8.1;2;;;;;;;26.84;24.40039;1006.896;;;;
2019/09/21 09:19:25;;;;;;;4.5;1.9;;;;;;;27.18;23.63379;1006.911;;;;
2019/09/21 09:21:50;;;;;;;5.7;2;;;;;;;26.25;24.85449;1006.805;;;;
2019/09/21 09:24:16;;;;;;;3.7;1.9;;;;;;;26.53;24.69238;1006.823;;;;
2019/09/21 09:26:41;;;;;;;4.4;1.9;;;;;;;26.37;25.03809;1006.883;;;;
2019/09/21 09:29:06;;;;;;;6.4;2.1;;;;;;;27.17;23.91895;1006.912;;;;
2019/09/21 09:31:31;;;;;;;4.4;2;;;;;;;25.83;25.8623;1006.946;;;;
2019/09/21 09:33:56;;;;;;;5.2;2.1;;;;;;;28.82;22.61133;1006.898;;;;
2019/09/21 09:36:21;;;;;;;6.3;1.8;;;;;;;27.23;24.01758;1006.88;;;;
2019/09/21 09:38:46;;;;;;;3.7;1.9;;;;;;;26.81;24.38672;1006.81;;;;
2019/09/21 09:41:11;;;;;;;5.2;2;;;;;;;26.46;24.8418;1006.738;;;;
2019/09/21 09:43:36;;;;;;;5.5;1.9;;;;;;;26.96;24.37109;1006.749;;;;
2019/09/21 09:46:01;;;;;;;5.7;2;;;;;;;27.51;23.83008;1006.667;;;;
2019/09/21 09:48:26;;;;;;;4.8;2;;;;;;;26.06;25.33008;1006.661;;;;
2019/09/21 09:50:52;;;;;;;5;1.9;;;;;;;26.62;24.61328;1006.62;;;;
2019/09/21 09:53:17;;;;;;;5.8;2;;;;;;;27.35;23.77344;1006.597;;;;
2019/09/21 09:55:42;;;;;;;4;2;;;;;;;27.14;24;1006.598;;;;
2019/09/21 09:58:07;;;;;;;5.2;1.9;;;;;;;26.65;24.73438;1006.536;;;;
2019/09/21 10:00:32;;;;;;;3.5;2;;;;;;;26.18;24.94531;1006.544;;;;
2019/09/21 10:02:57;;;;;;;4.6;1.7;;;;;;;26.66;24.71094;1006.562;;;;
2019/09/21 10:05:22;;;;;;;4.8;1.9;;;;;;;25.73;25.83301;1006.522;;;;
2019/09/21 10:07:47;;;;;;;3.5;1.9;;;;;;;25.04;26.69238;1006.455;;;;
2019/09/21 10:10:12;;;;;;;5.2;1.9;;;;;;;25;27.10352;1006.451;;;;
2019/09/21 10:12:37;;;;;;;4.8;1.8;;;;;;;25.91;25.7959;1006.435;;;;
2019/09/21 10:15:03;;;;;;;4.6;1.8;;;;;;;25.67;26.25586;1006.392;;;;
2019/09/21 10:17:28;;;;;;;4.7;1.9;;;;;;;24.89;27.03809;1006.472;;;;
2019/09/21 10:19:53;;;;;;;4;2;;;;;;;24.85;27.37891;1006.345;;;;
2019/09/21 10:22:18;;;;;;;5.6;2.1;;;;;;;25.32;26.89844;1006.307;;;;
2019/09/21 10:24:43;;;;;;;3.2;1.7;;;;;;;26.57;25.24023;1006.269;;;;
2019/09/21 10:27:08;;;;;;;5.7;1.7;;;;;;;26.02;25.82617;1006.206;;;;
2019/09/21 10:29:34;;;;;;;4.7;1.6;;;;;;;26.05;25.85156;1006.133;;;;
2019/09/21 10:31:59;;;;;;;4.5;1.9;;;;;;;26.01;26.05078;1006.101;;;;
2019/09/21 10:34:24;;;;;;;6.7;2.8;;;;;;;26.65;25.67285;1006.048;;;;
2019/09/21 10:36:49;;;;;;;4.2;1.7;;;;;;;26.33;25.62988;1005.984;;;;
2019/09/21 10:39:15;;;;;;;4.4;1.7;;;;;;;26.67;25.62598;1005.981;;;;
2019/09/21 10:41:39;;;;;;;4.2;1.8;;;;;;;25.15;27.125;1006.01;;;;
2019/09/21 10:44:04;;;;;;;6.9;2.2;;;;;;;23.56;29.48145;1005.927;;;;
2019/09/21 10:46:29;;;;;;;4.6;1.9;;;;;;;23.03;30.54102;1005.899;;;;
2019/09/21 10:48:54;;;;;;;7;2;;;;;;;23.36;30.39941;1005.853;;;;
2019/09/21 10:51:19;;;;;;;5.2;1.9;;;;;;;22.69;31.47168;1005.825;;;;
2019/09/21 10:53:44;;;;;;;4;1.8;;;;;;;22.9;31.14453;1005.744;;;;
2019/09/21 10:56:10;;;;;;;5.5;1.9;;;;;;;22.64;31.75098;1005.635;;;;
2019/09/21 10:58:35;;;;;;;5;1.9;;;;;;;22.5;32.22363;1005.632;;;;
2019/09/21 11:01:00;;;;;;;6.6;1.8;;;;;;;22.22;32.61426;1005.627;;;;
2019/09/21 11:03:25;;;;;;;5.5;1.9;;;;;;;22.3;32.84375;1005.643;;;;
2019/09/21 11:05:50;;;;;;;3.5;1.7;;;;;;;22.3;32.84277;1005.57;;;;
2019/09/21 11:08:15;;;;;;;3.9;1.7;;;;;;;22.05;33.2002;1005.572;;;;
2019/09/21 11:10:40;;;;;;;5.2;2.3;;;;;;;22.27;33.24121;1005.491;;;;
2019/09/21 11:13:05;;;;;;;7.2;2.1;;;;;;;22.08;33.60254;1005.507;;;;
2019/09/21 11:15:31;;;;;;;5.2;1.7;;;;;;;22.51;32.98828;1005.5;;;;
2019/09/21 11:17:56;;;;;;;4.5;2;;;;;;;22.39;32.89648;1005.423;;;;
2019/09/21 11:20:21;;;;;;;4.1;1.9;;;;;;;22.5;32.82324;1005.359;;;;
2019/09/21 11:22:46;;;;;;;5.6;2.5;;;;;;;22.44;32.66504;1005.363;;;;
2019/09/21 11:25:11;;;;;;;3.9;1.8;;;;;;;22.42;32.86426;1005.332;;;;
2019/09/21 11:27:36;;;;;;;5.8;2;;;;;;;22.56;33.28613;1005.278;;;;
2019/09/21 11:30:01;;;;;;;3.7;1.9;;;;;;;22.17;33.53906;1005.289;;;;
2019/09/21 11:32:26;;;;;;;4.4;2;;;;;;;22.3;33.14941;1005.282;;;;
2019/09/21 11:34:51;;;;;;;5.6;1.8;;;;;;;22.41;33.35742;1005.149;;;;
2019/09/21 11:37:17;;;;;;;4.4;2.2;;;;;;;22.19;33.25879;1005.101;;;;
2019/09/21 11:39:42;;;;;;;4.8;1.9;;;;;;;22.23;33.73145;1005.059;;;;
2019/09/21 11:42:07;;;;;;;5.4;2.1;;;;;;;22.18;33.87988;1005.06;;;;
2019/09/21 11:44:32;;;;;;;4.7;2.1;;;;;;;22.2;33.95313;1005.097;;;;
2019/09/21 11:46:57;;;;;;;7.2;2.1;;;;;;;21.9;33.96484;1005.048;;;;
2019/09/21 11:49:22;;;;;;;4.1;2.1;;;;;;;22.18;33.78613;1005.057;;;;
2019/09/21 11:51:47;;;;;;;6.9;2.3;;;;;;;22.41;33.33301;1005.019;;;;
2019/09/21 11:54:12;;;;;;;3.9;1.8;;;;;;;22.46;33.4082;1004.937;;;;
2019/09/21 11:56:37;;;;;;;5.7;2;;;;;;;22.15;34.03125;1004.912;;;;
2019/09/21 11:59:02;;;;;;;5.4;2.1;;;;;;;22.1;34.07422;1004.869;;;;
2019/09/21 12:01:29;;;;;;;6;2.1;;;;;;;22.27;33.80566;1004.851;;;;
2019/09/21 12:03:53;;;;;;;4.4;2.1;;;;;;;22.58;33.71191;1004.819;;;;
2019/09/21 12:06:18;;;;;;;6.5;2.1;;;;;;;22.52;33.48242;1004.763;;;;
2019/09/21 12:08:43;;;;;;;3.9;2.2;;;;;;;22.71;33.4502;1004.763;;;;
2019/09/21 12:11:08;;;;;;;8.7;2.4;;;;;;;22.85;33.0957;1004.702;;;;
2019/09/21 12:13:33;;;;;;;5.2;2.3;;;;;;;22.72;33.05078;1004.662;;;;
2019/09/21 12:15:58;;;;;;;5.5;2.5;;;;;;;22.35;33.18848;1004.51;;;;
2019/09/21 12:18:24;;;;;;;5.9;2.2;;;;;;;22.59;33.37012;1004.431;;;;
2019/09/21 12:20:49;;;;;;;5.8;2.2;;;;;;;22.55;33.13184;1004.427;;;;
2019/09/21 12:23:14;;;;;;;5.5;2.2;;;;;;;22.34;33.81055;1004.452;;;;
2019/09/21 12:25:39;;;;;;;5.4;2;;;;;;;22.06;33.94238;1004.467;;;;
2019/09/21 12:28:04;;;;;;;4.1;2.1;;;;;;;22.31;33.84375;1004.47;;;;
2019/09/21 12:30:30;;;;;;;5.4;2.1;;;;;;;22.34;33.36328;1004.459;;;;
2019/09/21 12:32:55;;;;;;;5.7;2.2;;;;;;;22.42;33.38184;1004.404;;;;
2019/09/21 12:35:20;;;;;;;5.1;1.9;;;;;;;22.66;32.70605;1004.343;;;;
2019/09/21 12:37:45;;;;;;;3.7;2.1;;;;;;;22.61;32.91309;1004.184;;;;
2019/09/21 12:40:10;;;;;;;5.3;1.8;;;;;;;22.58;32.93555;1004.185;;;;
2019/09/21 12:42:35;;;;;;;6.7;2.2;;;;;;;22.68;32.85938;1004.064;;;;
2019/09/21 12:45:00;;;;;;;6.5;2.1;;;;;;;22.96;32.44531;1004.059;;;;
2019/09/21 12:47:25;;;;;;;6.3;2.2;;;;;;;22.89;32.31055;1003.963;;;;
2019/09/21 12:49:51;;;;;;;4;1.7;;;;;;;22.94;32.52637;1003.908;;;;
2019/09/21 12:52:16;;;;;;;4.2;1.8;;;;;;;23.12;31.82031;1003.982;;;;
2019/09/21 12:54:41;;;;;;;4.2;1.8;;;;;;;23.04;32.20313;1003.975;;;;
2019/09/21 12:57:06;;;;;;;2.8;1.8;;;;;;;22.85;32.31836;1003.949;;;;
2019/09/21 12:59:31;;;;;;;4.9;2;;;;;;;22.89;32.43945;1003.876;;;;
2019/09/21 13:01:56;;;;;;;4.4;2.1;;;;;;;23.01;32.30664;1003.885;;;;
2019/09/21 13:04:21;;;;;;;3.6;1.9;;;;;;;23.06;31.96875;1003.852;;;;
2019/09/21 13:06:46;;;;;;;4.1;1.9;;;;;;;23.03;31.7666;1003.805;;;;
2019/09/21 13:09:12;;;;;;;6.8;2;;;;;;;23.17;32.10645;1003.742;;;;
2019/09/21 13:11:36;;;;;;;4.4;2;;;;;;;23.27;32.08984;1003.674;;;;
2019/09/21 13:14:02;;;;;;;5.8;2.1;;;;;;;23.26;31.99414;1003.618;;;;
2019/09/21 13:16:27;;;;;;;4.3;1.9;;;;;;;23.29;32.06836;1003.591;;;;
2019/09/21 13:18:52;;;;;;;4.1;1.7;;;;;;;23.41;31.71094;1003.533;;;;
2019/09/21 13:21:17;;;;;;;4;1.8;;;;;;;23.22;31.9209;1003.525;;;;
2019/09/21 13:23:43;;;;;;;5.1;2.1;;;;;;;23.28;31.99609;1003.494;;;;
2019/09/21 13:26:08;;;;;;;4.5;1.9;;;;;;;23.45;31.87891;1003.511;;;;
2019/09/21 13:28:33;;;;;;;5;1.8;;;;;;;23.46;31.59668;1003.428;;;;
2019/09/21 13:30:58;;;;;;;3.4;1.7;;;;;;;23.53;31.56641;1003.43;;;;
2019/09/21 13:33:23;;;;;;;4.5;2.1;;;;;;;23.48;31.62207;1003.426;;;;
2019/09/21 13:35:48;;;;;;;3.2;1.8;;;;;;;23.46;31.19629;1003.438;;;;
2019/09/21 13:38:13;;;;;;;4.6;1.9;;;;;;;23.36;31;1003.421;;;;
2019/09/21 13:40:38;;;;;;;3.6;1.8;;;;;;;23.48;30.47852;1003.349;;;;
2019/09/21 13:43:03;;;;;;;5.1;1.9;;;;;;;23.51;31.17578;1003.299;;;;
2019/09/21 13:45:28;;;;;;;4.1;1.5;;;;;;;23.58;30.7334;1003.29;;;;
2019/09/21 13:47:53;;;;;;;5.2;1.9;;;;;;;23.69;30.64648;1003.165;;;;
2019/09/21 13:50:19;;;;;;;2.7;1.5;;;;;;;23.69;30.50488;1003.165;;;;
2019/09/21 13:52:44;;;;;;;4.2;2;;;;;;;23.67;30.75;1003.131;;;;
2019/09/21 13:55:09;;;;;;;3.9;1.6;;;;;;;23.58;30.72168;1003.078;;;;
2019/09/21 13:57:34;;;;;;;5.1;1.8;;;;;;;23.68;30.50391;1003.045;;;;
2019/09/21 13:59:59;;;;;;;4.5;1.9;;;;;;;23.72;30.50586;1002.991;;;;
2019/09/21 14:02:24;;;;;;;5.5;1.9;;;;;;;23.79;30.42773;1002.955;;;;
2019/09/21 14:04:49;;;;;;;3.2;1.6;;;;;;;23.77;29.3418;1002.948;;;;
2019/09/21 14:07:16;;;;;;;7.9;1.6;;;;;;;23.82;29.62793;1002.926;;;;
2019/09/21 14:09:40;;;;;;;3.8;1.9;;;;;;;23.81;29.25098;1002.936;;;;
2019/09/21 14:12:05;;;;;;;4;1.7;;;;;;;23.86;29.44238;1002.9;;;;
2019/09/21 14:14:30;;;;;;;5.2;1.9;;;;;;;23.88;29.51367;1002.881;;;;
2019/09/21 14:16:55;;;;;;;4;1.8;;;;;;;23.87;29.60742;1002.818;;;;
2019/09/21 14:19:20;;;;;;;3.7;1.6;;;;;;;23.85;29.64258;1002.772;;;;
2019/09/21 14:21:45;;;;;;;4.4;1.8;;;;;;;23.84;29.79492;1002.73;;;;
2019/09/21 14:24:11;;;;;;;3.3;1.6;;;;;;;23.89;29.7627;1002.689;;;;
2019/09/21 14:26:36;;;;;;;3.8;1.5;;;;;;;23.98;29.52051;1002.633;;;;